sensor_id;sensor_type;location;lat;lon;timestamp;P1;durP1;ratioP1;P2;durP2;ratioP2
22622;SDS011;11478;51.094;7.030;2023-02-28T00:01:17;5.90;;;3.45;;
22622;SDS011;11478;51.094;7.030;2023-02-28T00:03:43;7.45;;;3.75;;
22622;SDS011;11478;51.094;7.030;2023-02-28T00:06:09;8.88;;;4.10;;
22622;SDS011;11478;51.094;7.030;2023-02-28T00:08:35;6.93;;;3.78;;
22622;SDS011;11478;51.094;7.030;2023-02-28T00:11:06;7.15;;;3.92;;
22622;SDS011;11478;51.094;7.030;2023-02-28T00:13:34;6.97;;;4.03;;
22622;SDS011;11478;51.094;7.030;2023-02-28T00:16:03;8.82;;;3.85;;
22622;SDS011;11478;51.094;7.030;2023-02-28T00:18:33;8.32;;;3.88;;
22622;SDS011;11478;51.094;7.030;2023-02-28T00:20:59;10.27;;;4.28;;
22622;SDS011;11478;51.094;7.030;2023-02-28T00:23:25;7.40;;;4.28;;
22622;SDS011;11478;51.094;7.030;2023-02-28T00:25:51;10.02;;;4.60;;
22622;SDS011;11478;51.094;7.030;2023-02-28T00:28:18;7.40;;;4.15;;
22622;SDS011;11478;51.094;7.030;2023-02-28T00:30:45;8.40;;;4.20;;
22622;SDS011;11478;51.094;7.030;2023-02-28T00:33:15;9.75;;;4.82;;
22622;SDS011;11478;51.094;7.030;2023-02-28T00:35:41;8.15;;;4.45;;
22622;SDS011;11478;51.094;7.030;2023-02-28T00:38:08;10.85;;;5.57;;
22622;SDS011;11478;51.094;7.030;2023-02-28T00:40:33;12.05;;;5.88;;
22622;SDS011;11478;51.094;7.030;2023-02-28T00:42:59;11.77;;;5.28;;
22622;SDS011;11478;51.094;7.030;2023-02-28T00:45:25;10.10;;;4.70;;
22622;SDS011;11478;51.094;7.030;2023-02-28T00:50:20;13.82;;;5.72;;
22622;SDS011;11478;51.094;7.030;2023-02-28T00:52:46;10.48;;;5.30;;
22622;SDS011;11478;51.094;7.030;2023-02-28T00:55:12;11.57;;;5.78;;
22622;SDS011;11478;51.094;7.030;2023-02-28T00:57:38;11.40;;;5.55;;
22622;SDS011;11478;51.094;7.030;2023-02-28T01:00:05;11.70;;;5.95;;
22622;SDS011;11478;51.094;7.030;2023-02-28T01:02:32;9.45;;;5.55;;
22622;SDS011;11478;51.094;7.030;2023-02-28T01:04:58;10.60;;;5.47;;
22622;SDS011;11478;51.094;7.030;2023-02-28T01:07:30;9.32;;;5.65;;
22622;SDS011;11478;51.094;7.030;2023-02-28T01:09:58;10.05;;;5.85;;
22622;SDS011;11478;51.094;7.030;2023-02-28T01:12:24;10.90;;;5.32;;
22622;SDS011;11478;51.094;7.030;2023-02-28T01:14:50;12.02;;;5.57;;
22622;SDS011;11478;51.094;7.030;2023-02-28T01:17:16;11.48;;;5.53;;
22622;SDS011;11478;51.094;7.030;2023-02-28T01:19:43;13.43;;;5.93;;
22622;SDS011;11478;51.094;7.030;2023-02-28T01:22:08;12.77;;;5.75;;
22622;SDS011;11478;51.094;7.030;2023-02-28T01:27:03;12.25;;;5.70;;
22622;SDS011;11478;51.094;7.030;2023-02-28T01:29:41;11.35;;;5.45;;
22622;SDS011;11478;51.094;7.030;2023-02-28T01:32:07;9.73;;;5.50;;
22622;SDS011;11478;51.094;7.030;2023-02-28T01:34:32;10.13;;;5.63;;
22622;SDS011;11478;51.094;7.030;2023-02-28T01:36:58;10.75;;;5.72;;
22622;SDS011;11478;51.094;7.030;2023-02-28T01:41:53;9.35;;;5.07;;
22622;SDS011;11478;51.094;7.030;2023-02-28T01:47:24;7.40;;;4.65;;
22622;SDS011;11478;51.094;7.030;2023-02-28T01:53:18;8.32;;;4.60;;
22622;SDS011;11478;51.094;7.030;2023-02-28T01:58:46;9.38;;;5.10;;
22622;SDS011;11478;51.094;7.030;2023-02-28T02:01:13;8.85;;;4.50;;
22622;SDS011;11478;51.094;7.030;2023-02-28T02:03:47;5.78;;;3.85;;
22622;SDS011;11478;51.094;7.030;2023-02-28T02:06:44;7.55;;;4.70;;
22622;SDS011;11478;51.094;7.030;2023-02-28T02:09:12;11.02;;;4.95;;
22622;SDS011;11478;51.094;7.030;2023-02-28T02:11:39;10.55;;;4.60;;
22622;SDS011;11478;51.094;7.030;2023-02-28T02:14:23;11.10;;;4.90;;
22622;SDS011;11478;51.094;7.030;2023-02-28T02:16:59;8.65;;;4.30;;
22622;SDS011;11478;51.094;7.030;2023-02-28T02:28:32;8.90;;;4.47;;
22622;SDS011;11478;51.094;7.030;2023-02-28T02:37:00;13.55;;;4.55;;
22622;SDS011;11478;51.094;7.030;2023-02-28T02:39:45;7.28;;;4.05;;
22622;SDS011;11478;51.094;7.030;2023-02-28T02:42:24;9.95;;;4.53;;
22622;SDS011;11478;51.094;7.030;2023-02-28T02:45:00;6.47;;;4.40;;
22622;SDS011;11478;51.094;7.030;2023-02-28T02:47:30;7.63;;;4.35;;
22622;SDS011;11478;51.094;7.030;2023-02-28T02:52:34;8.10;;;4.15;;
22622;SDS011;11478;51.094;7.030;2023-02-28T02:55:10;5.18;;;3.50;;
22622;SDS011;11478;51.094;7.030;2023-02-28T03:00:51;6.88;;;3.67;;
22622;SDS011;11478;51.094;7.030;2023-02-28T03:03:25;8.35;;;3.80;;
22622;SDS011;11478;51.094;7.030;2023-02-28T03:06:01;7.45;;;3.70;;
22622;SDS011;11478;51.094;7.030;2023-02-28T03:08:37;8.82;;;4.38;;
22622;SDS011;11478;51.094;7.030;2023-02-28T03:11:06;7.18;;;4.10;;
22622;SDS011;11478;51.094;7.030;2023-02-28T03:13:44;9.27;;;3.88;;
22622;SDS011;11478;51.094;7.030;2023-02-28T03:30:57;9.38;;;4.18;;
22622;SDS011;11478;51.094;7.030;2023-02-28T03:33:48;7.68;;;4.43;;
22622;SDS011;11478;51.094;7.030;2023-02-28T03:36:20;7.65;;;4.47;;
22622;SDS011;11478;51.094;7.030;2023-02-28T03:38:59;7.47;;;4.32;;
22622;SDS011;11478;51.094;7.030;2023-02-28T03:41:32;5.47;;;4.45;;
22622;SDS011;11478;51.094;7.030;2023-02-28T03:44:16;7.97;;;4.95;;
22622;SDS011;11478;51.094;7.030;2023-02-28T03:46:54;7.57;;;4.63;;
22622;SDS011;11478;51.094;7.030;2023-02-28T03:49:32;11.32;;;4.97;;
22622;SDS011;11478;51.094;7.030;2023-02-28T03:52:02;6.65;;;4.72;;
22622;SDS011;11478;51.094;7.030;2023-02-28T04:00:07;9.23;;;4.57;;
22622;SDS011;11478;51.094;7.030;2023-02-28T04:02:49;8.63;;;5.20;;
22622;SDS011;11478;51.094;7.030;2023-02-28T04:05:21;9.07;;;4.70;;
22622;SDS011;11478;51.094;7.030;2023-02-28T04:07:48;9.52;;;4.50;;
22622;SDS011;11478;51.094;7.030;2023-02-28T04:10:15;11.63;;;5.13;;
22622;SDS011;11478;51.094;7.030;2023-02-28T04:12:46;10.18;;;5.13;;
22622;SDS011;11478;51.094;7.030;2023-02-28T04:15:11;7.72;;;4.53;;
22622;SDS011;11478;51.094;7.030;2023-02-28T04:17:39;8.48;;;4.95;;
22622;SDS011;11478;51.094;7.030;2023-02-28T04:20:05;8.20;;;4.80;;
22622;SDS011;11478;51.094;7.030;2023-02-28T04:22:35;6.55;;;4.38;;
22622;SDS011;11478;51.094;7.030;2023-02-28T04:25:01;7.47;;;4.65;;
22622;SDS011;11478;51.094;7.030;2023-02-28T04:27:27;6.72;;;4.53;;
22622;SDS011;11478;51.094;7.030;2023-02-28T04:29:53;9.93;;;4.82;;
22622;SDS011;11478;51.094;7.030;2023-02-28T04:32:18;10.13;;;5.13;;
22622;SDS011;11478;51.094;7.030;2023-02-28T04:34:44;8.68;;;4.55;;
22622;SDS011;11478;51.094;7.030;2023-02-28T04:37:10;9.57;;;4.60;;
22622;SDS011;11478;51.094;7.030;2023-02-28T04:39:36;6.50;;;4.65;;
22622;SDS011;11478;51.094;7.030;2023-02-28T04:42:11;7.65;;;4.47;;
22622;SDS011;11478;51.094;7.030;2023-02-28T04:44:37;8.50;;;5.00;;
22622;SDS011;11478;51.094;7.030;2023-02-28T04:47:05;8.63;;;4.63;;
22622;SDS011;11478;51.094;7.030;2023-02-28T04:49:31;11.32;;;5.05;;
22622;SDS011;11478;51.094;7.030;2023-02-28T04:51:56;10.18;;;5.53;;
22622;SDS011;11478;51.094;7.030;2023-02-28T04:54:22;7.90;;;5.30;;
22622;SDS011;11478;51.094;7.030;2023-02-28T04:56:48;13.95;;;6.72;;
22622;SDS011;11478;51.094;7.030;2023-02-28T04:59:14;23.55;;;9.73;;
22622;SDS011;11478;51.094;7.030;2023-02-28T05:01:44;19.98;;;7.88;;
22622;SDS011;11478;51.094;7.030;2023-02-28T05:04:11;12.57;;;5.72;;
22622;SDS011;11478;51.094;7.030;2023-02-28T05:06:40;25.98;;;9.90;;
22622;SDS011;11478;51.094;7.030;2023-02-28T05:09:05;10.88;;;6.18;;
22622;SDS011;11478;51.094;7.030;2023-02-28T05:11:32;10.75;;;5.65;;
22622;SDS011;11478;51.094;7.030;2023-02-28T05:14:09;34.90;;;14.15;;
22622;SDS011;11478;51.094;7.030;2023-02-28T05:16:37;36.33;;;14.00;;
22622;SDS011;11478;51.094;7.030;2023-02-28T05:19:03;27.77;;;10.02;;
22622;SDS011;11478;51.094;7.030;2023-02-28T05:21:33;39.22;;;15.25;;
22622;SDS011;11478;51.094;7.030;2023-02-28T05:24:11;22.30;;;9.77;;
22622;SDS011;11478;51.094;7.030;2023-02-28T05:26:38;11.68;;;5.28;;
22622;SDS011;11478;51.094;7.030;2023-02-28T05:29:06;7.68;;;4.68;;
22622;SDS011;11478;51.094;7.030;2023-02-28T05:31:33;12.43;;;6.50;;
22622;SDS011;11478;51.094;7.030;2023-02-28T05:34:01;30.50;;;12.02;;
22622;SDS011;11478;51.094;7.030;2023-02-28T05:36:29;18.77;;;8.77;;
22622;SDS011;11478;51.094;7.030;2023-02-28T05:38:58;22.15;;;9.63;;
22622;SDS011;11478;51.094;7.030;2023-02-28T05:41:24;15.90;;;7.22;;
22622;SDS011;11478;51.094;7.030;2023-02-28T05:43:51;11.57;;;5.03;;
22622;SDS011;11478;51.094;7.030;2023-02-28T05:46:16;42.75;;;17.00;;
22622;SDS011;11478;51.094;7.030;2023-02-28T05:48:46;21.65;;;10.30;;
22622;SDS011;11478;51.094;7.030;2023-02-28T05:51:13;9.32;;;5.32;;
22622;SDS011;11478;51.094;7.030;2023-02-28T05:53:43;11.20;;;5.57;;
22622;SDS011;11478;51.094;7.030;2023-02-28T05:56:09;23.38;;;10.02;;
22622;SDS011;11478;51.094;7.030;2023-02-28T05:58:37;14.65;;;8.10;;
22622;SDS011;11478;51.094;7.030;2023-02-28T06:03:59;7.95;;;5.13;;
22622;SDS011;11478;51.094;7.030;2023-02-28T06:06:25;17.92;;;8.75;;
22622;SDS011;11478;51.094;7.030;2023-02-28T06:08:51;15.45;;;7.65;;
22622;SDS011;11478;51.094;7.030;2023-02-28T06:13:55;7.53;;;4.55;;
22622;SDS011;11478;51.094;7.030;2023-02-28T06:16:24;9.27;;;4.80;;
22622;SDS011;11478;51.094;7.030;2023-02-28T06:18:51;12.32;;;6.13;;
22622;SDS011;11478;51.094;7.030;2023-02-28T06:21:18;11.60;;;6.13;;
22622;SDS011;11478;51.094;7.030;2023-02-28T06:23:44;35.83;;;13.85;;
22622;SDS011;11478;51.094;7.030;2023-02-28T06:26:12;123.07;;;34.35;;
22622;SDS011;11478;51.094;7.030;2023-02-28T06:28:38;122.80;;;35.25;;
22622;SDS011;11478;51.094;7.030;2023-02-28T06:31:14;47.90;;;18.30;;
22622;SDS011;11478;51.094;7.030;2023-02-28T06:33:42;34.60;;;14.05;;
22622;SDS011;11478;51.094;7.030;2023-02-28T06:36:11;10.68;;;6.10;;
22622;SDS011;11478;51.094;7.030;2023-02-28T06:38:38;14.70;;;7.40;;
22622;SDS011;11478;51.094;7.030;2023-02-28T06:41:05;14.93;;;7.75;;
22622;SDS011;11478;51.094;7.030;2023-02-28T06:43:33;24.90;;;10.32;;
22622;SDS011;11478;51.094;7.030;2023-02-28T06:46:05;12.68;;;7.22;;
22622;SDS011;11478;51.094;7.030;2023-02-28T06:48:33;32.35;;;18.85;;
22622;SDS011;11478;51.094;7.030;2023-02-28T06:51:10;11.02;;;7.50;;
22622;SDS011;11478;51.094;7.030;2023-02-28T06:53:39;12.02;;;8.23;;
22622;SDS011;11478;51.094;7.030;2023-02-28T06:56:09;9.73;;;6.50;;
22622;SDS011;11478;51.094;7.030;2023-02-28T06:58:37;8.57;;;5.53;;
22622;SDS011;11478;51.094;7.030;2023-02-28T07:01:06;11.02;;;6.65;;
22622;SDS011;11478;51.094;7.030;2023-02-28T07:03:39;9.25;;;5.38;;
22622;SDS011;11478;51.094;7.030;2023-02-28T07:06:17;6.75;;;4.82;;
22622;SDS011;11478;51.094;7.030;2023-02-28T07:08:48;7.32;;;4.72;;
22622;SDS011;11478;51.094;7.030;2023-02-28T07:11:17;10.95;;;5.97;;
22622;SDS011;11478;51.094;7.030;2023-02-28T07:13:43;6.50;;;4.65;;
22622;SDS011;11478;51.094;7.030;2023-02-28T07:16:10;9.23;;;5.35;;
22622;SDS011;11478;51.094;7.030;2023-02-28T07:18:36;8.13;;;4.63;;
22622;SDS011;11478;51.094;7.030;2023-02-28T07:21:07;7.32;;;4.65;;
22622;SDS011;11478;51.094;7.030;2023-02-28T07:23:34;6.95;;;4.82;;
22622;SDS011;11478;51.094;7.030;2023-02-28T07:26:04;5.80;;;4.47;;
22622;SDS011;11478;51.094;7.030;2023-02-28T07:28:31;9.15;;;6.35;;
22622;SDS011;11478;51.094;7.030;2023-02-28T07:31:02;10.93;;;6.50;;
22622;SDS011;11478;51.094;7.030;2023-02-28T07:33:32;10.05;;;7.07;;
22622;SDS011;11478;51.094;7.030;2023-02-28T07:36:16;7.22;;;4.70;;
22622;SDS011;11478;51.094;7.030;2023-02-28T07:38:44;6.70;;;4.60;;
22622;SDS011;11478;51.094;7.030;2023-02-28T07:41:13;7.25;;;4.63;;
22622;SDS011;11478;51.094;7.030;2023-02-28T07:43:40;5.97;;;3.85;;
22622;SDS011;11478;51.094;7.030;2023-02-28T07:46:11;6.88;;;3.75;;
22622;SDS011;11478;51.094;7.030;2023-02-28T07:56:30;5.35;;;2.25;;
22622;SDS011;11478;51.094;7.030;2023-02-28T07:58:59;6.43;;;2.45;;
22622;SDS011;11478;51.094;7.030;2023-02-28T08:01:26;4.50;;;2.67;;
22622;SDS011;11478;51.094;7.030;2023-02-28T08:03:52;4.45;;;2.40;;
22622;SDS011;11478;51.094;7.030;2023-02-28T08:06:20;2.97;;;2.50;;
22622;SDS011;11478;51.094;7.030;2023-02-28T08:08:49;5.13;;;2.53;;
22622;SDS011;11478;51.094;7.030;2023-02-28T08:11:17;5.00;;;2.30;;
22622;SDS011;11478;51.094;7.030;2023-02-28T08:13:43;3.42;;;2.42;;
22622;SDS011;11478;51.094;7.030;2023-02-28T08:16:12;3.88;;;2.20;;
22622;SDS011;11478;51.094;7.030;2023-02-28T08:18:46;4.03;;;2.20;;
22622;SDS011;11478;51.094;7.030;2023-02-28T08:21:14;2.83;;;2.20;;
22622;SDS011;11478;51.094;7.030;2023-02-28T08:23:39;5.75;;;2.20;;
22622;SDS011;11478;51.094;7.030;2023-02-28T08:26:07;2.22;;;2.03;;
22622;SDS011;11478;51.094;7.030;2023-02-28T08:28:33;2.53;;;1.88;;
22622;SDS011;11478;51.094;7.030;2023-02-28T08:31:06;2.65;;;1.80;;
22622;SDS011;11478;51.094;7.030;2023-02-28T08:33:34;2.50;;;1.80;;
22622;SDS011;11478;51.094;7.030;2023-02-28T08:36:03;3.40;;;2.30;;
22622;SDS011;11478;51.094;7.030;2023-02-28T08:38:29;3.88;;;1.98;;
22622;SDS011;11478;51.094;7.030;2023-02-28T08:41:09;3.30;;;1.60;;
22622;SDS011;11478;51.094;7.030;2023-02-28T08:43:36;2.80;;;1.80;;
22622;SDS011;11478;51.094;7.030;2023-02-28T08:46:04;2.70;;;1.58;;
22622;SDS011;11478;51.094;7.030;2023-02-28T08:48:31;5.07;;;1.85;;
22622;SDS011;11478;51.094;7.030;2023-02-28T08:51:00;2.33;;;1.75;;
22622;SDS011;11478;51.094;7.030;2023-02-28T08:53:27;2.80;;;1.63;;
22622;SDS011;11478;51.094;7.030;2023-02-28T08:55:57;2.15;;;1.60;;
22622;SDS011;11478;51.094;7.030;2023-02-28T08:58:28;2.45;;;1.63;;
22622;SDS011;11478;51.094;7.030;2023-02-28T09:03:23;1.92;;;1.60;;
22622;SDS011;11478;51.094;7.030;2023-02-28T09:05:55;3.45;;;1.60;;
22622;SDS011;11478;51.094;7.030;2023-02-28T09:08:23;1.73;;;1.40;;
22622;SDS011;11478;51.094;7.030;2023-02-28T09:10:50;2.38;;;1.55;;
22622;SDS011;11478;51.094;7.030;2023-02-28T09:13:25;4.50;;;1.80;;
22622;SDS011;11478;51.094;7.030;2023-02-28T09:15:52;3.15;;;1.88;;
22622;SDS011;11478;51.094;7.030;2023-02-28T09:18:20;2.72;;;1.50;;
22622;SDS011;11478;51.094;7.030;2023-02-28T09:20:46;2.03;;;1.60;;
22622;SDS011;11478;51.094;7.030;2023-02-28T09:23:18;1.98;;;1.60;;
22622;SDS011;11478;51.094;7.030;2023-02-28T09:25:49;2.05;;;1.50;;
22622;SDS011;11478;51.094;7.030;2023-02-28T09:28:18;2.25;;;1.50;;
22622;SDS011;11478;51.094;7.030;2023-02-28T09:30:46;2.05;;;1.73;;
22622;SDS011;11478;51.094;7.030;2023-02-28T09:33:16;1.75;;;1.45;;
22622;SDS011;11478;51.094;7.030;2023-02-28T09:35:47;2.78;;;1.85;;
22622;SDS011;11478;51.094;7.030;2023-02-28T09:38:14;2.45;;;1.60;;
22622;SDS011;11478;51.094;7.030;2023-02-28T09:40:55;2.13;;;1.90;;
22622;SDS011;11478;51.094;7.030;2023-02-28T09:43:29;2.22;;;1.70;;
22622;SDS011;11478;51.094;7.030;2023-02-28T09:48:52;2.85;;;1.65;;
22622;SDS011;11478;51.094;7.030;2023-02-28T09:54:17;2.25;;;1.50;;
22622;SDS011;11478;51.094;7.030;2023-02-28T09:56:53;2.38;;;1.70;;
22622;SDS011;11478;51.094;7.030;2023-02-28T10:05:20;2.60;;;1.70;;
22622;SDS011;11478;51.094;7.030;2023-02-28T10:08:13;3.13;;;1.83;;
22622;SDS011;11478;51.094;7.030;2023-02-28T10:10:41;2.90;;;2.25;;
22622;SDS011;11478;51.094;7.030;2023-02-28T10:16:14;2.85;;;1.67;;
22622;SDS011;11478;51.094;7.030;2023-02-28T10:19:06;2.55;;;1.63;;
22622;SDS011;11478;51.094;7.030;2023-02-28T10:21:39;3.13;;;1.90;;
22622;SDS011;11478;51.094;7.030;2023-02-28T10:30:49;2.38;;;1.77;;
22622;SDS011;11478;51.094;7.030;2023-02-28T10:33:36;2.38;;;1.63;;
22622;SDS011;11478;51.094;7.030;2023-02-28T10:41:06;2.35;;;1.80;;
22622;SDS011;11478;51.094;7.030;2023-02-28T10:43:48;2.40;;;1.80;;
22622;SDS011;11478;51.094;7.030;2023-02-28T10:46:33;3.17;;;2.08;;
22622;SDS011;11478;51.094;7.030;2023-02-28T10:49:02;2.78;;;1.92;;
22622;SDS011;11478;51.094;7.030;2023-02-28T10:51:41;3.33;;;1.90;;
22622;SDS011;11478;51.094;7.030;2023-02-28T10:59:34;3.40;;;2.15;;
22622;SDS011;11478;51.094;7.030;2023-02-28T11:02:00;3.15;;;2.15;;
22622;SDS011;11478;51.094;7.030;2023-02-28T11:04:39;3.67;;;2.05;;
22622;SDS011;11478;51.094;7.030;2023-02-28T11:07:11;2.28;;;1.80;;
22622;SDS011;11478;51.094;7.030;2023-02-28T11:09:51;3.50;;;2.17;;
22622;SDS011;11478;51.094;7.030;2023-02-28T11:12:29;3.42;;;2.20;;
22622;SDS011;11478;51.094;7.030;2023-02-28T11:20:47;3.25;;;2.00;;
22622;SDS011;11478;51.094;7.030;2023-02-28T11:23:15;2.58;;;1.73;;
22622;SDS011;11478;51.094;7.030;2023-02-28T11:25:54;3.33;;;1.83;;
22622;SDS011;11478;51.094;7.030;2023-02-28T11:28:30;4.40;;;2.30;;
22622;SDS011;11478;51.094;7.030;2023-02-28T11:36:13;3.35;;;2.42;;
22622;SDS011;11478;51.094;7.030;2023-02-28T11:38:42;4.45;;;2.10;;
22622;SDS011;11478;51.094;7.030;2023-02-28T11:41:19;4.82;;;2.58;;
22622;SDS011;11478;51.094;7.030;2023-02-28T11:44:02;3.55;;;2.20;;
22622;SDS011;11478;51.094;7.030;2023-02-28T11:52:11;2.92;;;2.08;;
22622;SDS011;11478;51.094;7.030;2023-02-28T12:08:32;3.13;;;2.42;;
22622;SDS011;11478;51.094;7.030;2023-02-28T12:24:15;2.72;;;2.30;;
22622;SDS011;11478;51.094;7.030;2023-02-28T12:27:00;11.88;;;7.68;;
22622;SDS011;11478;51.094;7.030;2023-02-28T12:29:33;5.90;;;3.20;;
22622;SDS011;11478;51.094;7.030;2023-02-28T12:34:45;3.45;;;2.20;;
22622;SDS011;11478;51.094;7.030;2023-02-28T12:37:25;4.05;;;2.40;;
22622;SDS011;11478;51.094;7.030;2023-02-28T12:40:01;4.30;;;2.17;;
22622;SDS011;11478;51.094;7.030;2023-02-28T12:42:40;3.08;;;2.45;;
22622;SDS011;11478;51.094;7.030;2023-02-28T12:48:03;4.65;;;2.25;;
22622;SDS011;11478;51.094;7.030;2023-02-28T12:50:31;4.95;;;2.30;;
22622;SDS011;11478;51.094;7.030;2023-02-28T12:53:45;4.18;;;2.38;;
22622;SDS011;11478;51.094;7.030;2023-02-28T12:58:47;4.25;;;2.40;;
22622;SDS011;11478;51.094;7.030;2023-02-28T13:09:55;4.45;;;2.30;;
22622;SDS011;11478;51.094;7.030;2023-02-28T13:12:24;4.32;;;2.10;;
22622;SDS011;11478;51.094;7.030;2023-02-28T13:15:01;4.55;;;2.67;;
22622;SDS011;11478;51.094;7.030;2023-02-28T13:17:31;2.72;;;2.00;;
22622;SDS011;11478;51.094;7.030;2023-02-28T13:19:58;4.57;;;2.40;;
22622;SDS011;11478;51.094;7.030;2023-02-28T13:24:52;3.63;;;1.95;;
22622;SDS011;11478;51.094;7.030;2023-02-28T13:33:20;4.53;;;2.17;;
22622;SDS011;11478;51.094;7.030;2023-02-28T13:36:27;3.67;;;2.50;;
22622;SDS011;11478;51.094;7.030;2023-02-28T13:39:03;3.28;;;2.15;;
22622;SDS011;11478;51.094;7.030;2023-02-28T13:56:44;3.35;;;2.55;;
22622;SDS011;11478;51.094;7.030;2023-02-28T14:05:22;4.75;;;2.53;;
22622;SDS011;11478;51.094;7.030;2023-02-28T14:07:57;5.10;;;2.47;;
22622;SDS011;11478;51.094;7.030;2023-02-28T14:10:29;3.45;;;2.58;;
22622;SDS011;11478;51.094;7.030;2023-02-28T14:15:54;3.95;;;2.25;;
22622;SDS011;11478;51.094;7.030;2023-02-28T14:18:25;3.30;;;2.35;;
22622;SDS011;11478;51.094;7.030;2023-02-28T14:21:09;3.72;;;2.60;;
22622;SDS011;11478;51.094;7.030;2023-02-28T14:23:56;4.75;;;2.55;;
22622;SDS011;11478;51.094;7.030;2023-02-28T14:37:50;6.28;;;2.50;;
22622;SDS011;11478;51.094;7.030;2023-02-28T14:43:56;4.22;;;2.67;;
22622;SDS011;11478;51.094;7.030;2023-02-28T14:46:25;2.92;;;2.30;;
22622;SDS011;11478;51.094;7.030;2023-02-28T14:48:59;5.05;;;2.70;;
22622;SDS011;11478;51.094;7.030;2023-02-28T14:51:28;3.40;;;2.35;;
22622;SDS011;11478;51.094;7.030;2023-02-28T14:53:57;3.55;;;2.47;;
22622;SDS011;11478;51.094;7.030;2023-02-28T14:56:27;4.50;;;2.60;;
22622;SDS011;11478;51.094;7.030;2023-02-28T14:59:18;3.42;;;2.50;;
22622;SDS011;11478;51.094;7.030;2023-02-28T15:01:52;4.35;;;2.33;;
22622;SDS011;11478;51.094;7.030;2023-02-28T15:04:40;2.75;;;1.98;;
22622;SDS011;11478;51.094;7.030;2023-02-28T15:07:19;2.95;;;2.20;;
22622;SDS011;11478;51.094;7.030;2023-02-28T15:09:45;4.00;;;2.13;;
22622;SDS011;11478;51.094;7.030;2023-02-28T15:12:13;3.35;;;2.30;;
22622;SDS011;11478;51.094;7.030;2023-02-28T15:14:42;3.45;;;2.15;;
22622;SDS011;11478;51.094;7.030;2023-02-28T15:17:22;4.72;;;2.40;;
22622;SDS011;11478;51.094;7.030;2023-02-28T15:19:51;3.55;;;2.45;;
22622;SDS011;11478;51.094;7.030;2023-02-28T15:24:54;6.03;;;2.40;;
22622;SDS011;11478;51.094;7.030;2023-02-28T15:27:27;3.10;;;2.22;;
22622;SDS011;11478;51.094;7.030;2023-02-28T15:30:04;4.93;;;2.50;;
22622;SDS011;11478;51.094;7.030;2023-02-28T15:32:38;5.20;;;2.83;;
22622;SDS011;11478;51.094;7.030;2023-02-28T15:35:20;3.10;;;2.42;;
22622;SDS011;11478;51.094;7.030;2023-02-28T15:37:53;5.32;;;2.25;;
22622;SDS011;11478;51.094;7.030;2023-02-28T15:40:28;3.58;;;2.35;;
22622;SDS011;11478;51.094;7.030;2023-02-28T15:43:11;3.38;;;2.47;;
22622;SDS011;11478;51.094;7.030;2023-02-28T15:48:42;5.05;;;2.60;;
22622;SDS011;11478;51.094;7.030;2023-02-28T15:54:06;4.35;;;2.70;;
22622;SDS011;11478;51.094;7.030;2023-02-28T15:56:38;3.55;;;2.67;;
22622;SDS011;11478;51.094;7.030;2023-02-28T15:59:15;3.80;;;2.70;;
22622;SDS011;11478;51.094;7.030;2023-02-28T16:01:44;3.78;;;2.40;;
22622;SDS011;11478;51.094;7.030;2023-02-28T16:04:23;4.68;;;2.83;;
22622;SDS011;11478;51.094;7.030;2023-02-28T16:12:00;4.18;;;2.40;;
22622;SDS011;11478;51.094;7.030;2023-02-28T16:14:28;3.53;;;2.70;;
22622;SDS011;11478;51.094;7.030;2023-02-28T16:17:01;6.35;;;3.10;;
22622;SDS011;11478;51.094;7.030;2023-02-28T16:19:29;4.03;;;3.05;;
22622;SDS011;11478;51.094;7.030;2023-02-28T16:21:56;3.75;;;2.53;;
22622;SDS011;11478;51.094;7.030;2023-02-28T16:24:22;4.28;;;2.72;;
22622;SDS011;11478;51.094;7.030;2023-02-28T16:26:48;4.50;;;3.45;;
22622;SDS011;11478;51.094;7.030;2023-02-28T16:29:27;7.65;;;5.55;;
22622;SDS011;11478;51.094;7.030;2023-02-28T16:32:05;3.72;;;2.97;;
22622;SDS011;11478;51.094;7.030;2023-02-28T16:34:31;4.80;;;3.03;;
22622;SDS011;11478;51.094;7.030;2023-02-28T16:36:59;7.47;;;4.25;;
22622;SDS011;11478;51.094;7.030;2023-02-28T16:39:24;12.23;;;6.60;;
22622;SDS011;11478;51.094;7.030;2023-02-28T16:41:51;10.90;;;5.30;;
22622;SDS011;11478;51.094;7.030;2023-02-28T16:44:27;4.97;;;3.47;;
22622;SDS011;11478;51.094;7.030;2023-02-28T16:46:55;4.57;;;3.20;;
22622;SDS011;11478;51.094;7.030;2023-02-28T16:49:23;7.40;;;4.50;;
22622;SDS011;11478;51.094;7.030;2023-02-28T16:51:49;5.35;;;3.45;;
22622;SDS011;11478;51.094;7.030;2023-02-28T16:54:28;7.07;;;4.10;;
22622;SDS011;11478;51.094;7.030;2023-02-28T16:56:53;8.93;;;5.00;;
22622;SDS011;11478;51.094;7.030;2023-02-28T16:59:24;27.80;;;13.95;;
22622;SDS011;11478;51.094;7.030;2023-02-28T17:01:52;14.60;;;7.90;;
22622;SDS011;11478;51.094;7.030;2023-02-28T17:07:26;8.43;;;4.47;;
22622;SDS011;11478;51.094;7.030;2023-02-28T17:10:10;10.63;;;3.67;;
22622;SDS011;11478;51.094;7.030;2023-02-28T17:12:55;5.32;;;3.45;;
22622;SDS011;11478;51.094;7.030;2023-02-28T17:15:22;7.70;;;3.78;;
22622;SDS011;11478;51.094;7.030;2023-02-28T17:17:48;5.75;;;3.78;;
22622;SDS011;11478;51.094;7.030;2023-02-28T17:20:18;5.50;;;3.40;;
22622;SDS011;11478;51.094;7.030;2023-02-28T17:22:52;6.60;;;3.55;;
22622;SDS011;11478;51.094;7.030;2023-02-28T17:25:22;5.90;;;3.83;;
22622;SDS011;11478;51.094;7.030;2023-02-28T17:27:48;7.88;;;3.70;;
22622;SDS011;11478;51.094;7.030;2023-02-28T17:30:19;5.32;;;3.90;;
22622;SDS011;11478;51.094;7.030;2023-02-28T17:32:47;5.90;;;3.72;;
22622;SDS011;11478;51.094;7.030;2023-02-28T17:35:13;6.68;;;3.90;;
22622;SDS011;11478;51.094;7.030;2023-02-28T17:37:38;5.70;;;4.18;;
22622;SDS011;11478;51.094;7.030;2023-02-28T17:40:09;5.55;;;3.88;;
22622;SDS011;11478;51.094;7.030;2023-02-28T17:42:40;6.72;;;4.07;;
22622;SDS011;11478;51.094;7.030;2023-02-28T17:45:22;8.55;;;4.82;;
22622;SDS011;11478;51.094;7.030;2023-02-28T17:47:48;9.15;;;5.50;;
22622;SDS011;11478;51.094;7.030;2023-02-28T17:50:20;8.75;;;4.30;;
22622;SDS011;11478;51.094;7.030;2023-02-28T17:52:47;6.03;;;3.97;;
22622;SDS011;11478;51.094;7.030;2023-02-28T17:55:24;7.10;;;4.65;;
22622;SDS011;11478;51.094;7.030;2023-02-28T17:57:50;13.00;;;6.13;;
22622;SDS011;11478;51.094;7.030;2023-02-28T18:00:31;8.32;;;4.97;;
22622;SDS011;11478;51.094;7.030;2023-02-28T18:03:00;7.88;;;4.22;;
22622;SDS011;11478;51.094;7.030;2023-02-28T18:05:28;9.43;;;4.82;;
22622;SDS011;11478;51.094;7.030;2023-02-28T18:07:55;9.68;;;5.68;;
22622;SDS011;11478;51.094;7.030;2023-02-28T18:10:21;11.02;;;5.28;;
22622;SDS011;11478;51.094;7.030;2023-02-28T18:12:48;12.88;;;5.70;;
22622;SDS011;11478;51.094;7.030;2023-02-28T18:15:16;8.60;;;5.30;;
22622;SDS011;11478;51.094;7.030;2023-02-28T18:17:45;6.53;;;4.22;;
22622;SDS011;11478;51.094;7.030;2023-02-28T18:20:12;9.15;;;4.65;;
22622;SDS011;11478;51.094;7.030;2023-02-28T18:22:38;6.43;;;4.10;;
22622;SDS011;11478;51.094;7.030;2023-02-28T18:25:07;9.60;;;5.30;;
22622;SDS011;11478;51.094;7.030;2023-02-28T18:27:39;7.00;;;4.28;;
22622;SDS011;11478;51.094;7.030;2023-02-28T18:30:22;6.80;;;4.32;;
22622;SDS011;11478;51.094;7.030;2023-02-28T18:33:18;9.95;;;4.82;;
22622;SDS011;11478;51.094;7.030;2023-02-28T18:35:44;6.47;;;4.45;;
22622;SDS011;11478;51.094;7.030;2023-02-28T18:38:12;10.50;;;4.30;;
22622;SDS011;11478;51.094;7.030;2023-02-28T18:40:40;9.02;;;4.95;;
22622;SDS011;11478;51.094;7.030;2023-02-28T18:43:07;8.25;;;4.72;;
22622;SDS011;11478;51.094;7.030;2023-02-28T18:45:37;7.57;;;4.60;;
22622;SDS011;11478;51.094;7.030;2023-02-28T18:48:12;7.18;;;4.40;;
22622;SDS011;11478;51.094;7.030;2023-02-28T18:50:39;6.72;;;4.57;;
22622;SDS011;11478;51.094;7.030;2023-02-28T18:53:06;7.45;;;4.55;;
22622;SDS011;11478;51.094;7.030;2023-02-28T18:55:32;6.22;;;4.43;;